sensor_id;sensor_type;location;lat;lon;timestamp;temperature;humidity
55719;DHT22;41623;46.104;19.656;2023-08-08T00:01:17;563.30;1356.80
55719;DHT22;41623;46.104;19.656;2023-08-08T00:03:42;563.30;1382.40
55719;DHT22;41623;46.104;19.656;2023-08-08T00:06:08;563.30;1356.80
55719;DHT22;41623;46.104;19.656;2023-08-08T00:08:34;563.30;1382.40
55719;DHT22;41623;46.104;19.656;2023-08-08T00:10:59;563.30;1382.40
55719;DHT22;41623;46.104;19.656;2023-08-08T00:13:25;563.30;1382.40
55719;DHT22;41623;46.104;19.656;2023-08-08T00:15:51;563.30;1382.40
55719;DHT22;41623;46.104;19.656;2023-08-08T00:18:17;563.20;1356.80
55719;DHT22;41623;46.104;19.656;2023-08-08T00:20:42;563.20;1356.80
55719;DHT22;41623;46.104;19.656;2023-08-08T00:23:08;538.50;1305.60
55719;DHT22;41623;46.104;19.656;2023-08-08T00:25:35;538.50;1356.80
55719;DHT22;41623;46.104;19.656;2023-08-08T00:28:00;538.40;1331.20
55719;DHT22;41623;46.104;19.656;2023-08-08T00:30:26;538.20;1331.20
55719;DHT22;41623;46.104;19.656;2023-08-08T00:32:52;538.20;1382.40
55719;DHT22;41623;46.104;19.656;2023-08-08T00:35:18;538.10;1356.80
55719;DHT22;41623;46.104;19.656;2023-08-08T00:37:43;538.00;1356.80
55719;DHT22;41623;46.104;19.656;2023-08-08T00:40:10;538.00;1382.40
55719;DHT22;41623;46.104;19.656;2023-08-08T00:42:35;537.90;1382.40
55719;DHT22;41623;46.104;19.656;2023-08-08T00:45:01;537.90;1408.00
55719;DHT22;41623;46.104;19.656;2023-08-08T00:47:33;537.90;1459.20
55719;DHT22;41623;46.104;19.656;2023-08-08T00:50:01;538.00;1433.60
55719;DHT22;41623;46.104;19.656;2023-08-08T00:52:28;538.00;1408.00
55719;DHT22;41623;46.104;19.656;2023-08-08T00:54:54;537.90;1459.20
55719;DHT22;41623;46.104;19.656;2023-08-08T00:57:20;538.00;1459.20
55719;DHT22;41623;46.104;19.656;2023-08-08T00:59:46;538.00;1433.60
55719;DHT22;41623;46.104;19.656;2023-08-08T01:02:12;538.00;1433.60
55719;DHT22;41623;46.104;19.656;2023-08-08T01:04:38;538.20;1459.20
55719;DHT22;41623;46.104;19.656;2023-08-08T01:11:59;538.40;1382.40
55719;DHT22;41623;46.104;19.656;2023-08-08T01:14:26;538.40;1356.80
55719;DHT22;41623;46.104;19.656;2023-08-08T01:16:57;538.30;1382.40
55719;DHT22;41623;46.104;19.656;2023-08-08T01:19:30;538.40;1382.40
55719;DHT22;41623;46.104;19.656;2023-08-08T01:22:04;538.40;1459.20
55719;DHT22;41623;46.104;19.656;2023-08-08T01:24:30;538.50;1408.00
55719;DHT22;41623;46.104;19.656;2023-08-08T01:26:59;538.40;1612.80
55719;DHT22;41623;46.104;19.656;2023-08-08T01:29:25;538.20;1408.00
55719;DHT22;41623;46.104;19.656;2023-08-08T01:31:51;538.20;1408.00
55719;DHT22;41623;46.104;19.656;2023-08-08T01:34:17;538.20;1433.60
55719;DHT22;41623;46.104;19.656;2023-08-08T01:37:01;538.20;1382.40
55719;DHT22;41623;46.104;19.656;2023-08-08T01:39:30;538.20;1408.00
55719;DHT22;41623;46.104;19.656;2023-08-08T01:41:57;538.30;1433.60
55719;DHT22;41623;46.104;19.656;2023-08-08T01:44:24;538.40;1408.00
55719;DHT22;41623;46.104;19.656;2023-08-08T01:46:52;538.50;1433.60
55719;DHT22;41623;46.104;19.656;2023-08-08T01:49:19;538.50;1382.40
55719;DHT22;41623;46.104;19.656;2023-08-08T01:51:44;538.50;1382.40
55719;DHT22;41623;46.104;19.656;2023-08-08T01:54:10;538.50;1382.40
55719;DHT22;41623;46.104;19.656;2023-08-08T01:56:36;538.50;1408.00
55719;DHT22;41623;46.104;19.656;2023-08-08T01:59:02;563.20;1408.00
55719;DHT22;41623;46.104;19.656;2023-08-08T02:01:27;563.70;1408.00
55719;DHT22;41623;46.104;19.656;2023-08-08T02:03:53;563.60;1382.40
55719;DHT22;41623;46.104;19.656;2023-08-08T02:06:19;563.40;1382.40
55719;DHT22;41623;46.104;19.656;2023-08-08T02:08:45;563.30;1382.40
55719;DHT22;41623;46.104;19.656;2023-08-08T02:11:11;563.20;1433.60
55719;DHT22;41623;46.104;19.656;2023-08-08T02:13:37;563.20;1382.40
55719;DHT22;41623;46.104;19.656;2023-08-08T02:16:02;563.20;1408.00
55719;DHT22;41623;46.104;19.656;2023-08-08T02:18:28;563.20;1459.20
55719;DHT22;41623;46.104;19.656;2023-08-08T02:20:54;563.30;1382.40
55719;DHT22;41623;46.104;19.656;2023-08-08T02:23:19;563.40;1459.20
55719;DHT22;41623;46.104;19.656;2023-08-08T02:25:45;563.50;1382.40
55719;DHT22;41623;46.104;19.656;2023-08-08T02:28:11;563.60;1382.40
55719;DHT22;41623;46.104;19.656;2023-08-08T02:30:37;563.70;1408.00
55719;DHT22;41623;46.104;19.656;2023-08-08T02:33:03;563.70;1356.80
55719;DHT22;41623;46.104;19.656;2023-08-08T02:35:29;563.70;1408.00
55719;DHT22;41623;46.104;19.656;2023-08-08T02:37:55;563.70;1382.40
55719;DHT22;41623;46.104;19.656;2023-08-08T02:40:21;563.70;1408.00
55719;DHT22;41623;46.104;19.656;2023-08-08T02:42:49;563.70;1382.40
55719;DHT22;41623;46.104;19.656;2023-08-08T02:45:15;563.70;1382.40
55719;DHT22;41623;46.104;19.656;2023-08-08T02:47:41;563.70;1408.00
55719;DHT22;41623;46.104;19.656;2023-08-08T02:50:07;563.40;1356.80
55719;DHT22;41623;46.104;19.656;2023-08-08T02:52:32;563.60;1408.00
55719;DHT22;41623;46.104;19.656;2023-08-08T02:54:58;563.60;1408.00
55719;DHT22;41623;46.104;19.656;2023-08-08T02:57:24;563.60;1382.40
55719;DHT22;41623;46.104;19.656;2023-08-08T02:59:49;563.60;1356.80
55719;DHT22;41623;46.104;19.656;2023-08-08T03:02:15;563.40;1382.40
55719;DHT22;41623;46.104;19.656;2023-08-08T03:04:41;563.30;1382.40
55719;DHT22;41623;46.104;19.656;2023-08-08T03:07:07;563.20;1382.40
55719;DHT22;41623;46.104;19.656;2023-08-08T03:09:32;563.20;1408.00
55719;DHT22;41623;46.104;19.656;2023-08-08T03:11:58;538.50;1433.60
55719;DHT22;41623;46.104;19.656;2023-08-08T03:14:24;538.50;1408.00
55719;DHT22;41623;46.104;19.656;2023-08-08T03:16:49;538.50;1356.80
55719;DHT22;41623;46.104;19.656;2023-08-08T03:19:15;538.50;1356.80
55719;DHT22;41623;46.104;19.656;2023-08-08T03:21:41;538.20;1382.40
55719;DHT22;41623;46.104;19.656;2023-08-08T04:08:07;537.60;1433.60
55719;DHT22;41623;46.104;19.656;2023-08-08T04:10:33;512.90;1382.40
55719;DHT22;41623;46.104;19.656;2023-08-08T04:12:58;512.60;1408.00
55719;DHT22;41623;46.104;19.656;2023-08-08T04:15:24;512.50;1408.00
55719;DHT22;41623;46.104;19.656;2023-08-08T04:17:50;512.30;1433.60
55719;DHT22;41623;46.104;19.656;2023-08-08T04:20:15;512.20;1484.80
55719;DHT22;41623;46.104;19.656;2023-08-08T04:22:41;512.40;1408.00
55719;DHT22;41623;46.104;19.656;2023-08-08T04:25:07;512.10;1459.20
55719;DHT22;41623;46.104;19.656;2023-08-08T04:27:33;512.20;1433.60
55719;DHT22;41623;46.104;19.656;2023-08-08T04:29:59;512.10;1484.80
55719;DHT22;41623;46.104;19.656;2023-08-08T04:32:24;512.10;1484.80
55719;DHT22;41623;46.104;19.656;2023-08-08T04:34:50;512.50;1459.20
55719;DHT22;41623;46.104;19.656;2023-08-08T04:37:16;512.20;1459.20
55719;DHT22;41623;46.104;19.656;2023-08-08T04:39:42;512.10;1484.80
55719;DHT22;41623;46.104;19.656;2023-08-08T04:42:07;512.40;1484.80
55719;DHT22;41623;46.104;19.656;2023-08-08T04:44:33;512.20;1459.20
55719;DHT22;41623;46.104;19.656;2023-08-08T04:56:43;512.20;1638.40
55719;DHT22;41623;46.104;19.656;2023-08-08T04:59:09;487.30;1689.60
55719;DHT22;41623;46.104;19.656;2023-08-08T05:01:34;487.30;1510.40
55719;DHT22;41623;46.104;19.656;2023-08-08T05:04:00;487.30;1484.80
55719;DHT22;41623;46.104;19.656;2023-08-08T05:06:26;487.30;1715.20
55719;DHT22;41623;46.104;19.656;2023-08-08T05:08:52;487.20;1484.80
55719;DHT22;41623;46.104;19.656;2023-08-08T05:11:18;487.10;1510.40
55719;DHT22;41623;46.104;19.656;2023-08-08T05:13:44;487.10;1484.80
55719;DHT22;41623;46.104;19.656;2023-08-08T05:16:09;487.10;1484.80
55719;DHT22;41623;46.104;19.656;2023-08-08T05:18:35;487.10;1484.80
55719;DHT22;41623;46.104;19.656;2023-08-08T05:21:01;487.10;1484.80
55719;DHT22;41623;46.104;19.656;2023-08-08T05:23:27;487.10;1484.80
55719;DHT22;41623;46.104;19.656;2023-08-08T05:25:52;487.20;1638.40
55719;DHT22;41623;46.104;19.656;2023-08-08T05:28:18;487.30;1484.80
55719;DHT22;41623;46.104;19.656;2023-08-08T05:30:44;487.20;1484.80
55719;DHT22;41623;46.104;19.656;2023-08-08T05:33:10;487.20;1484.80
55719;DHT22;41623;46.104;19.656;2023-08-08T05:35:35;487.30;1459.20
55719;DHT22;41623;46.104;19.656;2023-08-08T05:38:01;512.00;1689.60
55719;DHT22;41623;46.104;19.656;2023-08-08T05:40:27;512.10;1408.00
55719;DHT22;41623;46.104;19.656;2023-08-08T05:42:53;512.00;1433.60
55719;DHT22;41623;46.104;19.656;2023-08-08T05:45:18;512.10;1433.60
55719;DHT22;41623;46.104;19.656;2023-08-08T05:47:44;512.10;1433.60
55719;DHT22;41623;46.104;19.656;2023-08-08T05:50:10;512.20;1433.60
55719;DHT22;41623;46.104;19.656;2023-08-08T05:52:35;512.20;1433.60
55719;DHT22;41623;46.104;19.656;2023-08-08T05:55:01;512.10;1408.00
55719;DHT22;41623;46.104;19.656;2023-08-08T05:57:27;512.10;1382.40
55719;DHT22;41623;46.104;19.656;2023-08-08T05:59:53;512.00;1382.40
55719;DHT22;41623;46.104;19.656;2023-08-08T06:02:18;512.00;1382.40
55719;DHT22;41623;46.104;19.656;2023-08-08T06:04:44;512.20;1433.60
55719;DHT22;41623;46.104;19.656;2023-08-08T06:07:10;512.40;1638.40
55719;DHT22;41623;46.104;19.656;2023-08-08T06:09:36;512.40;1561.60
55719;DHT22;41623;46.104;19.656;2023-08-08T06:12:03;512.30;1382.40
55719;DHT22;41623;46.104;19.656;2023-08-08T06:14:30;512.40;1356.80
55719;DHT22;41623;46.104;19.656;2023-08-08T06:16:56;512.40;1356.80
55719;DHT22;41623;46.104;19.656;2023-08-08T06:19:22;512.40;1331.20
55719;DHT22;41623;46.104;19.656;2023-08-08T06:21:47;512.40;1356.80
55719;DHT22;41623;46.104;19.656;2023-08-08T06:24:14;512.30;1356.80
55719;DHT22;41623;46.104;19.656;2023-08-08T06:26:40;512.40;1356.80
55719;DHT22;41623;46.104;19.656;2023-08-08T06:29:05;512.40;1331.20
55719;DHT22;41623;46.104;19.656;2023-08-08T06:31:31;512.50;1510.40
55719;DHT22;41623;46.104;19.656;2023-08-08T06:33:57;512.40;1331.20
55719;DHT22;41623;46.104;19.656;2023-08-08T06:36:22;512.40;1331.20
55719;DHT22;41623;46.104;19.656;2023-08-08T06:38:48;512.30;1331.20
55719;DHT22;41623;46.104;19.656;2023-08-08T06:41:14;512.30;1331.20
55719;DHT22;41623;46.104;19.656;2023-08-08T06:43:40;512.40;1331.20
55719;DHT22;41623;46.104;19.656;2023-08-08T06:46:05;512.40;1331.20
55719;DHT22;41623;46.104;19.656;2023-08-08T06:48:31;512.40;1331.20
55719;DHT22;41623;46.104;19.656;2023-08-08T06:50:57;512.40;1305.60
55719;DHT22;41623;46.104;19.656;2023-08-08T06:53:23;512.20;1331.20
55719;DHT22;41623;46.104;19.656;2023-08-08T06:55:49;512.50;1331.20
55719;DHT22;41623;46.104;19.656;2023-08-08T06:58:14;512.50;1305.60
55719;DHT22;41623;46.104;19.656;2023-08-08T07:00:40;512.50;1305.60
55719;DHT22;41623;46.104;19.656;2023-08-08T07:03:06;512.50;1305.60
55719;DHT22;41623;46.104;19.656;2023-08-08T07:05:32;512.50;1305.60
55719;DHT22;41623;46.104;19.656;2023-08-08T07:07:57;512.60;1305.60
55719;DHT22;41623;46.104;19.656;2023-08-08T07:10:23;512.60;1305.60
55719;DHT22;41623;46.104;19.656;2023-08-08T07:12:49;512.70;1331.20
55719;DHT22;41623;46.104;19.656;2023-08-08T07:15:15;512.70;1305.60
55719;DHT22;41623;46.104;19.656;2023-08-08T07:17:41;512.80;1305.60
55719;DHT22;41623;46.104;19.656;2023-08-08T07:20:07;512.90;1331.20
55719;DHT22;41623;46.104;19.656;2023-08-08T07:22:33;512.90;1280.00
55719;DHT22;41623;46.104;19.656;2023-08-08T07:24:59;537.60;1305.60
55719;DHT22;41623;46.104;19.656;2023-08-08T07:27:26;512.90;1280.00
55719;DHT22;41623;46.104;19.656;2023-08-08T07:29:52;512.90;1280.00
55719;DHT22;41623;46.104;19.656;2023-08-08T07:32:18;512.90;1280.00
55719;DHT22;41623;46.104;19.656;2023-08-08T07:34:44;537.60;1280.00
55719;DHT22;41623;46.104;19.656;2023-08-08T07:37:09;537.60;1305.60
55719;DHT22;41623;46.104;19.656;2023-08-08T07:39:35;537.70;1305.60
55719;DHT22;41623;46.104;19.656;2023-08-08T07:42:01;537.70;1305.60
55719;DHT22;41623;46.104;19.656;2023-08-08T07:44:26;537.80;1280.00
55719;DHT22;41623;46.104;19.656;2023-08-08T07:46:52;537.80;1280.00
55719;DHT22;41623;46.104;19.656;2023-08-08T07:49:18;537.80;1254.40
55719;DHT22;41623;46.104;19.656;2023-08-08T07:51:43;537.80;1254.40
55719;DHT22;41623;46.104;19.656;2023-08-08T07:54:09;537.80;1254.40
55719;DHT22;41623;46.104;19.656;2023-08-08T07:56:36;537.90;1254.40
55719;DHT22;41623;46.104;19.656;2023-08-08T07:59:02;537.90;1228.80
55719;DHT22;41623;46.104;19.656;2023-08-08T08:01:29;537.90;1254.40
55719;DHT22;41623;46.104;19.656;2023-08-08T08:03:55;537.90;1254.40
55719;DHT22;41623;46.104;19.656;2023-08-08T08:06:21;537.90;1254.40
55719;DHT22;41623;46.104;19.656;2023-08-08T08:08:47;537.90;1254.40
55719;DHT22;41623;46.104;19.656;2023-08-08T08:11:12;538.00;1254.40
55719;DHT22;41623;46.104;19.656;2023-08-08T08:13:39;538.00;1254.40
55719;DHT22;41623;46.104;19.656;2023-08-08T08:16:05;538.00;1280.00
55719;DHT22;41623;46.104;19.656;2023-08-08T08:18:31;538.20;1433.60
55719;DHT22;41623;46.104;19.656;2023-08-08T08:20:58;538.10;1254.40
55719;DHT22;41623;46.104;19.656;2023-08-08T08:23:24;538.10;1254.40
55719;DHT22;41623;46.104;19.656;2023-08-08T08:25:50;538.10;1228.80
55719;DHT22;41623;46.104;19.656;2023-08-08T08:28:16;538.50;1228.80
55719;DHT22;41623;46.104;19.656;2023-08-08T08:30:42;538.30;1254.40
55719;DHT22;41623;46.104;19.656;2023-08-08T08:33:08;538.40;1254.40
55719;DHT22;41623;46.104;19.656;2023-08-08T08:38:03;563.20;1254.40
55719;DHT22;41623;46.104;19.656;2023-08-08T08:40:33;538.40;1228.80
55719;DHT22;41623;46.104;19.656;2023-08-08T08:43:02;538.30;1228.80
55719;DHT22;41623;46.104;19.656;2023-08-08T08:45:30;538.30;1228.80
55719;DHT22;41623;46.104;19.656;2023-08-08T08:47:56;538.50;1254.40
55719;DHT22;41623;46.104;19.656;2023-08-08T08:50:24;538.50;1228.80
55719;DHT22;41623;46.104;19.656;2023-08-08T08:52:53;538.50;1203.20
55719;DHT22;41623;46.104;19.656;2023-08-08T08:55:21;538.50;1203.20
55719;DHT22;41623;46.104;19.656;2023-08-08T08:57:48;538.50;1228.80
55719;DHT22;41623;46.104;19.656;2023-08-08T09:00:14;563.30;1228.80
55719;DHT22;41623;46.104;19.656;2023-08-08T09:02:41;563.30;1536.00
55719;DHT22;41623;46.104;19.656;2023-08-08T09:05:08;563.20;1254.40
55719;DHT22;41623;46.104;19.656;2023-08-08T09:07:35;563.40;1305.60
55719;DHT22;41623;46.104;19.656;2023-08-08T09:10:02;563.20;1254.40
55719;DHT22;41623;46.104;19.656;2023-08-08T09:12:29;563.60;1177.60
55719;DHT22;41623;46.104;19.656;2023-08-08T09:14:57;563.40;1203.20
55719;DHT22;41623;46.104;19.656;2023-08-08T09:17:25;563.40;1203.20
55719;DHT22;41623;46.104;19.656;2023-08-08T09:19:53;563.30;1203.20
55719;DHT22;41623;46.104;19.656;2023-08-08T09:22:20;563.40;1203.20
55719;DHT22;41623;46.104;19.656;2023-08-08T09:24:46;563.40;1203.20
55719;DHT22;41623;46.104;19.656;2023-08-08T16:43:22;589.70;998.40
55719;DHT22;41623;46.104;19.656;2023-08-08T16:45:48;589.40;998.40
55719;DHT22;41623;46.104;19.656;2023-08-08T16:48:14;589.40;947.20
55719;DHT22;41623;46.104;19.656;2023-08-08T16:50:40;589.40;972.80
55719;DHT22;41623;46.104;19.656;2023-08-08T16:53:05;589.40;998.40
55719;DHT22;41623;46.104;19.656;2023-08-08T16:55:32;589.40;972.80
55719;DHT22;41623;46.104;19.656;2023-08-08T16:57:57;589.40;947.20
55719;DHT22;41623;46.104;19.656;2023-08-08T17:00:23;589.40;947.20
55719;DHT22;41623;46.104;19.656;2023-08-08T17:02:49;589.50;998.40
55719;DHT22;41623;46.104;19.656;2023-08-08T17:05:14;589.50;947.20
55719;DHT22;41623;46.104;19.656;2023-08-08T17:07:41;589.40;972.80
55719;DHT22;41623;46.104;19.656;2023-08-08T17:10:07;589.40;947.20
55719;DHT22;41623;46.104;19.656;2023-08-08T17:12:33;589.40;972.80
55719;DHT22;41623;46.104;19.656;2023-08-08T17:14:59;589.40;947.20
55719;DHT22;41623;46.104;19.656;2023-08-08T17:17:24;589.40;998.40
55719;DHT22;41623;46.104;19.656;2023-08-08T17:19:51;589.30;972.80
55719;DHT22;41623;46.104;19.656;2023-08-08T17:22:17;589.30;972.80
55719;DHT22;41623;46.104;19.656;2023-08-08T17:24:43;589.30;998.40
55719;DHT22;41623;46.104;19.656;2023-08-08T17:27:09;589.30;998.40
55719;DHT22;41623;46.104;19.656;2023-08-08T17:29:34;589.30;998.40
55719;DHT22;41623;46.104;19.656;2023-08-08T17:32:00;589.30;998.40
55719;DHT22;41623;46.104;19.656;2023-08-08T17:34:26;589.30;1024.00
55719;DHT22;41623;46.104;19.656;2023-08-08T17:36:51;589.30;1024.00
55719;DHT22;41623;46.104;19.656;2023-08-08T17:39:17;589.30;1024.00
55719;DHT22;41623;46.104;19.656;2023-08-08T17:41:43;589.30;1075.20
55719;DHT22;41623;46.104;19.656;2023-08-08T17:44:09;589.30;1075.20
55719;DHT22;41623;46.104;19.656;2023-08-08T17:46:35;589.40;1075.20
55719;DHT22;41623;46.104;19.656;2023-08-08T17:49:00;589.40;1075.20
55719;DHT22;41623;46.104;19.656;2023-08-08T17:51:26;589.40;1075.20
55719;DHT22;41623;46.104;19.656;2023-08-08T17:53:53;589.40;1100.80
55719;DHT22;41623;46.104;19.656;2023-08-08T17:56:19;589.40;1100.80
55719;DHT22;41623;46.104;19.656;2023-08-08T17:58:44;589.40;1100.80
55719;DHT22;41623;46.104;19.656;2023-08-08T18:01:13;589.40;1100.80
55719;DHT22;41623;46.104;19.656;2023-08-08T18:03:39;589.40;1100.80
55719;DHT22;41623;46.104;19.656;2023-08-08T18:06:05;589.40;1100.80
55719;DHT22;41623;46.104;19.656;2023-08-08T18:08:30;589.40;1126.40
55719;DHT22;41623;46.104;19.656;2023-08-08T18:10:56;589.40;1126.40
55719;DHT22;41623;46.104;19.656;2023-08-08T18:13:22;589.40;1126.40
55719;DHT22;41623;46.104;19.656;2023-08-08T18:15:48;589.40;1126.40
55719;DHT22;41623;46.104;19.656;2023-08-08T18:18:15;589.40;1100.80
55719;DHT22;41623;46.104;19.656;2023-08-08T18:20:41;589.40;1126.40
55719;DHT22;41623;46.104;19.656;2023-08-08T18:23:07;589.40;1126.40
55719;DHT22;41623;46.104;19.656;2023-08-08T18:25:33;589.40;1126.40
55719;DHT22;41623;46.104;19.656;2023-08-08T18:27:59;589.40;1152.00
55719;DHT22;41623;46.104;19.656;2023-08-08T18:30:25;589.40;1126.40
55719;DHT22;41623;46.104;19.656;2023-08-08T18:32:51;589.40;1152.00
55719;DHT22;41623;46.104;19.656;2023-08-08T18:35:16;589.40;1126.40
55719;DHT22;41623;46.104;19.656;2023-08-08T18:37:42;589.40;1152.00
55719;DHT22;41623;46.104;19.656;2023-08-08T18:40:08;589.40;1152.00
55719;DHT22;41623;46.104;19.656;2023-08-08T18:42:37;589.40;1152.00
55719;DHT22;41623;46.104;19.656;2023-08-08T18:45:03;589.40;1152.00
55719;DHT22;41623;46.104;19.656;2023-08-08T18:47:29;589.40;1152.00
55719;DHT22;41623;46.104;19.656;2023-08-08T18:49:55;589.40;1152.00
55719;DHT22;41623;46.104;19.656;2023-08-08T18:52:20;589.40;1152.00
55719;DHT22;41623;46.104;19.656;2023-08-08T18:54:46;589.40;1152.00
55719;DHT22;41623;46.104;19.656;2023-08-08T18:57:13;589.40;1152.00
55719;DHT22;41623;46.104;19.656;2023-08-08T18:59:39;589.30;1152.00
55719;DHT22;41623;46.104;19.656;2023-08-08T19:02:05;589.40;1152.00
55719;DHT22;41623;46.104;19.656;2023-08-08T19:04:31;589.40;1152.00
55719;DHT22;41623;46.104;19.656;2023-08-08T19:06:56;589.40;1152.00
55719;DHT22;41623;46.104;19.656;2023-08-08T19:09:22;589.40;1152.00
55719;DHT22;41623;46.104;19.656;2023-08-08T19:11:48;589.40;1152.00
55719;DHT22;41623;46.104;19.656;2023-08-08T19:14:14;589.40;1177.60
55719;DHT22;41623;46.104;19.656;2023-08-08T19:16:39;589.40;1152.00
55719;DHT22;41623;46.104;19.656;2023-08-08T19:19:05;589.40;1152.00
55719;DHT22;41623;46.104;19.656;2023-08-08T19:21:31;589.40;1177.60
55719;DHT22;41623;46.104;19.656;2023-08-08T19:23:57;589.40;1177.60
55719;DHT22;41623;46.104;19.656;2023-08-08T19:26:22;589.40;1177.60
55719;DHT22;41623;46.104;19.656;2023-08-08T19:28:48;589.40;1177.60
55719;DHT22;41623;46.104;19.656;2023-08-08T19:31:14;589.40;1177.60
55719;DHT22;41623;46.104;19.656;2023-08-08T19:33:40;589.40;1177.60
55719;DHT22;41623;46.104;19.656;2023-08-08T19:36:06;589.40;1177.60
55719;DHT22;41623;46.104;19.656;2023-08-08T19:38:35;589.50;1177.60
55719;DHT22;41623;46.104;19.656;2023-08-08T19:41:01;589.50;1177.60
55719;DHT22;41623;46.104;19.656;2023-08-08T19:43:26;589.50;1177.60
55719;DHT22;41623;46.104;19.656;2023-08-08T19:45:52;589.50;1177.60
55719;DHT22;41623;46.104;19.656;2023-08-08T19:48:20;589.40;1177.60
55719;DHT22;41623;46.104;19.656;2023-08-08T19:50:45;589.40;1177.60
55719;DHT22;41623;46.104;19.656;2023-08-08T19:53:11;589.50;1177.60
55719;DHT22;41623;46.104;19.656;2023-08-08T19:55:37;589.50;1177.60
55719;DHT22;41623;46.104;19.656;2023-08-08T19:58:04;589.50;1177.60
55719;DHT22;41623;46.104;19.656;2023-08-08T20:00:30;589.50;1177.60
55719;DHT22;41623;46.104;19.656;2023-08-08T20:02:56;589.40;1203.20
55719;DHT22;41623;46.104;19.656;2023-08-08T20:05:21;589.40;1203.20
55719;DHT22;41623;46.104;19.656;2023-08-08T20:07:48;589.40;1177.60
55719;DHT22;41623;46.104;19.656;2023-08-08T20:10:14;589.40;1203.20
55719;DHT22;41623;46.104;19.656;2023-08-08T20:12:40;589.40;1203.20
55719;DHT22;41623;46.104;19.656;2023-08-08T20:15:07;589.40;1203.20
55719;DHT22;41623;46.104;19.656;2023-08-08T20:17:33;589.30;1228.80
55719;DHT22;41623;46.104;19.656;2023-08-08T20:19:59;589.30;1228.80
55719;DHT22;41623;46.104;19.656;2023-08-08T20:22:25;589.20;1228.80
55719;DHT22;41623;46.104;19.656;2023-08-08T20:24:51;589.20;1203.20
55719;DHT22;41623;46.104;19.656;2023-08-08T20:27:18;589.30;1228.80
55719;DHT22;41623;46.104;19.656;2023-08-08T20:29:44;589.20;1228.80
55719;DHT22;41623;46.104;19.656;2023-08-08T20:32:09;589.20;1228.80
55719;DHT22;41623;46.104;19.656;2023-08-08T20:34:35;589.20;1228.80
55719;DHT22;41623;46.104;19.656;2023-08-08T20:37:01;589.20;1228.80
55719;DHT22;41623;46.104;19.656;2023-08-08T20:39:27;589.20;1228.80
55719;DHT22;41623;46.104;19.656;2023-08-08T20:41:53;589.20;1254.40
55719;DHT22;41623;46.104;19.656;2023-08-08T20:44:19;589.20;1254.40
55719;DHT22;41623;46.104;19.656;2023-08-08T20:46:46;589.10;1228.80
55719;DHT22;41623;46.104;19.656;2023-08-08T20:49:13;589.10;1228.80
55719;DHT22;41623;46.104;19.656;2023-08-08T20:51:39;589.10;1228.80
55719;DHT22;41623;46.104;19.656;2023-08-08T20:54:05;589.10;1228.80
55719;DHT22;41623;46.104;19.656;2023-08-08T20:56:31;589.10;1228.80
55719;DHT22;41623;46.104;19.656;2023-08-08T20:58:57;589.10;1254.40
55719;DHT22;41623;46.104;19.656;2023-08-08T21:01:23;589.10;1254.40
55719;DHT22;41623;46.104;19.656;2023-08-08T21:03:48;589.10;1254.40
55719;DHT22;41623;46.104;19.656;2023-08-08T21:06:14;589.10;1254.40
55719;DHT22;41623;46.104;19.656;2023-08-08T21:08:40;589.10;1254.40
55719;DHT22;41623;46.104;19.656;2023-08-08T21:11:06;589.00;1254.40
55719;DHT22;41623;46.104;19.656;2023-08-08T21:13:32;589.10;1254.40
55719;DHT22;41623;46.104;19.656;2023-08-08T21:15:58;589.00;1254.40
55719;DHT22;41623;46.104;19.656;2023-08-08T21:18:23;589.00;1254.40
55719;DHT22;41623;46.104;19.656;2023-08-08T21:20:49;589.00;1254.40
55719;DHT22;41623;46.104;19.656;2023-08-08T21:23:15;589.00;1254.40
55719;DHT22;41623;46.104;19.656;2023-08-08T21:25:41;589.00;1254.40
55719;DHT22;41623;46.104;19.656;2023-08-08T21:28:06;589.00;1254.40
55719;DHT22;41623;46.104;19.656;2023-08-08T21:30:32;589.10;1254.40
55719;DHT22;41623;46.104;19.656;2023-08-08T21:32:58;589.10;1254.40
55719;DHT22;41623;46.104;19.656;2023-08-08T21:35:24;589.00;1254.40
55719;DHT22;41623;46.104;19.656;2023-08-08T21:37:49;589.00;1280.00
55719;DHT22;41623;46.104;19.656;2023-08-08T21:40:15;589.00;1280.00
55719;DHT22;41623;46.104;19.656;2023-08-08T21:42:41;588.90;1280.00
55719;DHT22;41623;46.104;19.656;2023-08-08T21:45:07;588.90;1280.00
55719;DHT22;41623;46.104;19.656;2023-08-08T21:47:33;588.90;1280.00
55719;DHT22;41623;46.104;19.656;2023-08-08T21:49:59;588.90;1280.00
55719;DHT22;41623;46.104;19.656;2023-08-08T21:52:24;588.90;1280.00
55719;DHT22;41623;46.104;19.656;2023-08-08T21:54:50;588.90;1280.00
55719;DHT22;41623;46.104;19.656;2023-08-08T21:57:16;588.90;1305.60
55719;DHT22;41623;46.104;19.656;2023-08-08T21:59:41;588.80;1305.60
55719;DHT22;41623;46.104;19.656;2023-08-08T22:02:07;588.80;1305.60
55719;DHT22;41623;46.104;19.656;2023-08-08T22:04:33;588.80;1305.60
55719;DHT22;41623;46.104;19.656;2023-08-08T22:06:59;564.10;1305.60
55719;DHT22;41623;46.104;19.656;2023-08-08T22:09:25;564.10;1305.60
55719;DHT22;41623;46.104;19.656;2023-08-08T22:11:52;588.80;1305.60
55719;DHT22;41623;46.104;19.656;2023-08-08T22:14:19;564.10;1305.60
55719;DHT22;41623;46.104;19.656;2023-08-08T22:16:44;564.10;1331.20
55719;DHT22;41623;46.104;19.656;2023-08-08T22:19:10;564.10;1305.60
55719;DHT22;41623;46.104;19.656;2023-08-08T22:21:36;564.10;1331.20
55719;DHT22;41623;46.104;19.656;2023-08-08T22:24:02;564.10;1331.20
55719;DHT22;41623;46.104;19.656;2023-08-08T22:26:29;564.10;1331.20
55719;DHT22;41623;46.104;19.656;2023-08-08T22:28:54;564.10;1331.20
55719;DHT22;41623;46.104;19.656;2023-08-08T22:31:20;564.10;1331.20
55719;DHT22;41623;46.104;19.656;2023-08-08T22:33:46;564.10;1331.20
55719;DHT22;41623;46.104;19.656;2023-08-08T22:36:12;564.10;1331.20
55719;DHT22;41623;46.104;19.656;2023-08-08T22:38:37;564.10;1331.20
55719;DHT22;41623;46.104;19.656;2023-08-08T22:41:03;564.10;1331.20
55719;DHT22;41623;46.104;19.656;2023-08-08T22:43:29;564.10;1331.20
55719;DHT22;41623;46.104;19.656;2023-08-08T22:45:55;564.10;1331.20